Pt. Reyes RCA field Weather observations

Data are for 10 minute period ending at time listed.
 Day   Time   Solar   Ave.   Ave.  Ave.  Vector    Max.   Stn.   Total 
  of    of     Rad.   Air    Rel.  Wind   Wind     Wind   Baro. Precip.
Year   Day            Temp.  Hum.  Speed  Dir.     Gust   Pres.        
2015   (PST)   W/m2    F      %     mph   deg.      mph    mb.    in.  
-----------------------------------------------------------------------
 182    8:30  370.0    56   98.3    10    168.0    13.0   1008.5  0.00  
 182    8:40  518.0    56   98.2    13    157.2    16.1   1008.8  0.00  
 182    8:50  581.0    58   97.2    14    157.9    17.0   1008.8  0.00  
 182    9:00  530.0    58   92.1    14    153.2    19.1   1009.1  0.00  
 182    9:10  497.0    59   89.0    14    157.0    18.6   1009.1  0.00  
 182    9:20  601.0    59   87.8    17    152.9    21.3   1009.1  0.00  
 182    9:30  547.0    59   86.4    19    154.9    23.8   1009.1  0.00  
 182    9:40  465.0    58   88.5    18    154.8    23.5   1009.5  0.00  
 182    9:50  488.0    59   86.8    20    155.6    25.3   1009.5  0.00  
 182   10:00  445.0    59   87.9    20    157.4    25.5   1009.8  0.00  
 182   10:10  467.0    59   86.7    19    154.6    23.8   1010.2  0.00  
 182   10:20  520.0    59   87.0    20    154.5    25.4   1010.2  0.00  
 182   10:30  727.0    61   83.3    20    150.5    26.4   1010.2  0.00  
 182   10:40  667.0    61   82.2    19    151.2    24.8   1010.5  0.00  
 182   10:50  650.0    61   82.7    18    150.0    23.8   1010.2  0.00  
 182   11:00  752.0    62   82.1    16    161.2    20.1   1010.5  0.00  
 182   11:10  728.0    62   79.2    16    165.3    20.5   1010.5  0.00  
 182   11:20  502.0    62   80.0    16    163.9    19.9   1010.5  0.00  
 182   11:30  499.0    60   83.4    14    165.6    19.1   1010.5  0.00  
 182   11:40  852.0    61   82.5    13    165.3    16.3   1010.5  0.00  
 182   11:50  610.0    62   79.1    13    160.9    17.5   1010.8  0.00  
 182   12:00  736.0    61   80.7    13    167.4    17.8   1010.8  0.00  
 182   12:10  858.0    62   79.6    12    165.7    16.7   1010.5  0.00  
 182   12:20  791.0    62   80.0    12    176.5    16.8   1010.5  0.00  
 182   12:30  737.0    62   80.8    12    179.3    15.9   1010.5  0.00  
 182   12:40  784.0    61   82.5    11    159.2    14.0   1010.5  0.00  
 182   12:50  862.0    61   82.1    11    157.7    14.2   1010.8  0.00  
 182   13:00  881.0    62   80.3    10    180.9    13.4   1010.8  0.00  
 182   13:10  897.0    63   79.3    11    173.5    14.5   1011.2  0.00  
 182   13:20  867.0    62   80.4    10    180.3    14.5   1011.2  0.00  
 182   13:30  906.0    63   79.1     9    180.0    13.0   1010.8  0.00  
 182   13:40  867.0    62   80.4     9    182.9    11.9   1010.8  0.00  
 182   13:50  851.0    63   78.7     8    190.4    11.5   1010.8  0.00  
 182   14:00  723.0    64   77.1     6    172.2    12.3   1010.5  0.00  
 182   14:10  464.0    64   77.3     5    184.7     8.6   1010.5  0.00  
 182   14:20  716.0    64   79.4     5    219.4     9.9   1010.5  0.00  
 182   14:30  775.0    65   75.6     7    218.3    11.8   1010.2  0.00  
 182   14:40  740.0    63   79.8    10    249.6    12.3   1010.2  0.00  
 182   14:50  474.0    63   79.8    10    248.9    13.0   1010.2  0.00  
 182   15:00  387.0    61   84.6    10    257.1    13.4   1010.2  0.00  
 182   15:10  508.0    61   84.9     9    247.3    11.7   1010.2  0.00  
 182   15:20  743.0    62   82.6     8    262.9    12.8   1010.2  0.00  
 182   15:30  419.0    62   81.9     9    271.0    11.4   1010.2  0.00  
 182   15:40  472.0    60   85.9     8    272.0    10.8   1010.2  0.00  
 182   15:50  641.0    61   84.6     7    272.5     9.4   1010.2  0.00  
 182   16:00  700.0    62   83.6     7    258.4     9.3   1010.2  0.00  
 182   16:10  668.0    61   85.0     8    266.0    10.1   1010.2  0.00  
 182   16:20  363.0    60   86.8     8    270.0     9.4   1010.2  0.00  
 182   16:30  205.0    59   88.8     7    273.6     9.5   1010.2  0.00  
 182   16:40  332.0    59   91.0     7    264.1     8.8   1009.8  0.00  
 182   16:50  271.0    59   90.7     5    273.9     8.5   1009.8  0.00  
 182   17:00  200.0    59   90.8     6    274.5     7.8   1009.8  0.00  
 182   17:10  126.0    58   91.7     5    270.3     6.6   1009.8  0.00  
 182   17:20   88.0    58   92.8     5    273.9     7.0   1009.8  0.00  
 182   17:30   71.0    58   93.4     5    271.3     6.8   1009.8  0.00  
 182   17:40   69.0    58   93.4     6    278.3     8.4   1009.5  0.00  
 182   17:50   70.0    57   93.8     6    285.3     8.0   1009.5  0.00  
 182   18:00   69.0    57   94.3     7    301.8     9.6   1009.1  0.00  
 182   18:10   59.0    57   94.2     8    307.6    10.0   1008.8  0.00  
 182   18:20   79.0    57   95.0     6    317.3     8.0   1009.1  0.00  
 182   18:30   49.0    56   95.3     7    324.0     9.3   1009.1  0.00  
 182   18:40   41.0    56   95.7     9    334.3    10.7   1008.8  0.00  
 182   18:50   35.0    56   96.1    10    334.3    13.9   1008.8  0.00  
 182   19:00   26.0    56   96.3    15    329.0    20.3   1007.8  0.00  
 182   19:10   11.0    56   96.5    16    333.0    20.5   1007.5  0.00  
 182   19:20    7.0    56   96.8    14    330.9    18.3   1007.8  0.00  
 182   19:30    4.0    55   96.9    13    335.3    15.9   1007.8  0.00  
 182   19:40    3.0    56   97.0    11    345.4    13.8   1008.5  0.00  
 182   19:50    1.0    56   97.0    10    331.1    13.6   1008.1  0.00  
 182   20:00    0.0    56   97.0     6    320.5     9.1   1008.5  0.00  
 182   20:10    0.0    56   97.0     6    323.9     8.1   1008.5  0.00  
 182   20:20    0.0    56   97.0     3      7.8     5.3   1008.8  0.00  
 182   20:30    0.0    56   97.0     3    300.5     4.6   1008.8  0.00  
 182   20:40    0.0    56   97.0     3    280.2     4.0   1009.1  0.00  
 182   20:50    0.0    56   96.9     3    247.3     3.7   1008.8  0.00  
 182   21:00    0.0    56   96.8     3    233.2     4.7   1009.1  0.00  
 182   21:10    0.0    56   96.7     5    225.4     6.6   1009.5  0.00  
 182   21:20    0.0    56   96.6     6    211.1     7.5   1009.5  0.00  
 182   21:30    0.0    56   96.3     6    202.5     8.0   1009.5  0.00  
 182   21:40    0.0    56   96.1     7    194.4     9.4   1009.8  0.00  
 182   21:50    0.0    56   95.9     6    185.8     8.6   1009.8  0.00  
 182   22:00    0.0    56   95.7     7    178.7    10.0   1009.8  0.00  
 182   22:10    0.0    56   95.6     6    180.8     8.4   1009.8  0.00  
 182   22:20    0.0    56   95.4     4    211.1     6.2   1009.8  0.00  
 182   22:30    0.0    55   95.5     5    219.3     6.7   1009.8  0.00  
 182   22:40    0.0    55   95.8     5    209.6     5.9   1009.8  0.00  
 182   22:50    0.0    56   96.0     4    218.9     6.1   1009.8  0.00  
 182   23:00    0.0    56   96.1     6    242.3     7.7   1009.5  0.00  
 182   23:10    0.0    56   96.2     5    235.6     7.3   1009.5  0.00  
 182   23:20    0.0    56   96.4     6    219.8     8.0   1009.5  0.00  
 182   23:30    0.0    55   96.6     5    256.8     7.5   1009.1  0.00  
 182   23:40    0.0    55   96.8     5    235.3     6.1   1009.5  0.00  
 182   23:50    0.0    55   97.0     3    240.4     5.5   1009.1  0.00  
 183    0:00    0.0    55   97.1     4    244.5     6.2   1009.1  0.00  
 183    0:10    0.0    55   97.2     4    253.9     6.4   1009.1  0.00  
 183    0:20    0.0    55   97.3     2    251.6     3.5   1009.1  0.00  
 183    0:30    0.0    55   97.4     3    216.8     4.2   1009.5  0.00  
 183    0:40    0.0    55   97.4     4    198.2     6.0   1009.5  0.00  
 183    0:50    0.0    55   97.5     4    182.3     5.6   1009.5  0.00  
 183    1:00    0.0    55   97.6     5    149.4     7.3   1010.2  0.00  
 183    1:10    0.0    55   97.6     7    156.3     8.5   1010.5  0.00  
 183    1:20    0.0    55   97.7     6    174.1     8.1   1010.2  0.00  
 183    1:30    0.0    55   97.7     3    233.5     4.7   1009.8  0.00  
 183    1:40    0.0    55   97.8     4    278.3     6.1   1009.1  0.00  
 183    1:50    0.0    55   97.8     5    241.3     9.0   1009.5  0.00  
 183    2:00    0.0    55   97.8     6    175.1     9.7   1009.8  0.00  
 183    2:10    0.0    55   97.9     5    210.6     6.6   1009.8  0.00  
 183    2:20    0.0    55   97.9     2    220.3     3.7   1009.8  0.00  
 183    2:30    0.0    55   97.9     4    232.4     4.7   1009.8  0.00  
 183    2:40    0.0    55   97.9     4    236.9     5.3   1009.5  0.00  
 183    2:50    0.0    55   97.9     5    251.1     6.3   1009.5  0.00  
 183    3:00    0.0    55   98.0     3    243.2     5.7   1009.5  0.00  
 183    3:10    0.0    55   98.0     2    208.5     3.1   1009.8  0.00  
 183    3:20    0.0    55   98.0     4    184.0     5.0   1010.2  0.00  
 183    3:30    0.0    55   98.0     3    219.5     3.8   1009.8  0.00  
 183    3:40    0.0    55   98.1     2    233.3     2.6   1009.8  0.00  
 183    3:50    0.0    55   98.1     2    278.4     3.1   1009.8  0.00  
 183    4:00    0.0    55   98.1     4    287.3     6.6   1009.5  0.00  
 183    4:10    0.0    55   98.1     4    261.9     5.3   1009.5  0.00  
 183    4:20    0.0    55   98.1     5    271.7     8.0   1009.1  0.00  
 183    4:30    0.0    55   98.1     3    344.1     5.8   1009.5  0.00  
 183    4:40    0.0    55   98.1     2    194.4     3.1   1009.8  0.00  
 183    4:50    0.0    55   98.1     3    224.2     6.1   1009.5  0.00  
 183    5:00    1.0    55   98.2     6    197.8     7.7   1009.5  0.00  
 183    5:10    6.0    55   98.2     5    173.1     6.6   1010.2  0.00  
 183    5:20   16.0    55   98.2     3    204.7     5.4   1010.2  0.00  
 183    5:30   25.0    55   98.2     4    183.8     6.6   1010.2  0.00  
 183    5:40   29.0    56   98.2     6    168.5     9.3   1010.2  0.00  
 183    5:50   21.0    55   98.2     8    146.9    10.4   1010.5  0.00  
 183    6:00   23.0    55   98.2     6    141.4     7.8   1010.5  0.00  
 183    6:10   33.0    56   98.2     5    148.9     6.8   1010.5  0.00  
 183    6:20   43.0    56   98.2     6    161.7     8.4   1010.2  0.00  
 183    6:30   43.0    56   98.1     7    160.7     9.2   1010.5  0.00  
 183    6:40   88.0    56   98.1     7    158.4     9.4   1010.5  0.00  
 183    6:50   98.0    56   98.1     8    151.3    10.4   1010.5  0.00  
 183    7:00  124.0    56   97.9     9    155.6    12.5   1010.8  0.00  
 183    7:10  165.0    57   97.5     9    157.7    11.5   1010.8  0.00  
 183    7:20  136.0    57   96.7    11    157.0    13.9   1010.8  0.00  
 183    7:30  198.0    57   95.6    12    154.7    13.9   1010.8  0.00  
 183    7:40  184.0    58   94.6    11    153.1    15.2   1010.8  0.00  
 183    7:50   86.0    58   93.4    12    148.6    14.9   1011.2  0.00  
 183    8:00  135.0    58   93.9    12    140.4    15.8   1011.5  0.00  
 183    8:10  200.0    58   93.7    12    153.1    15.9   1011.2  0.00  
 183    8:20  209.0    58   93.0    14    152.5    18.9   1011.2  0.00  

Return to Pt. Reyes graphs page.


Western Regional Climate Center,wrcc@dri.edu